Time;durP1;ratioP1;P1;durP2;ratioP2;P2;SDS_P1;SDS_P2;PMS_P1;PMS_P2;Temp;Humidity;BMP_temperature;BMP_pressure;BME280_temperature;BME280_humidity;BME280_pressure;Samples;Min_cycle;Max_cycle;Signal;HPM_P1;HPM_P2
2022/02/02 00:00:44;;;;;;;;;25.17;20.33;;;;;2.81;83.44;98614.03;6304967;20;3581663;-43
2022/02/02 00:03:13;;;;;;;;;23.67;16.67;;;;;2.93;83.53;98628.50;6282601;20;3577310;-42
2022/02/02 00:08:37;;;;;;;;;14.00;10.00;;;;;2.82;84.29;98623.72;6313445;20;2788856;-43
2022/02/02 00:19:18;;;;;;;;;26.33;23.33;;;;;2.34;90.48;98617.13;6311525;20;3560660;-42
2022/02/02 00:21:50;;;;;;;;;23.00;21.50;;;;;2.36;92.06;98611.72;6314326;20;2844082;-45
2022/02/02 00:26:54;;;;;;;;;29.00;21.00;;;;;2.42;93.50;98607.03;6279789;20;3585777;-42
2022/02/02 00:29:25;;;;;;;;;28.00;22.00;;;;;2.51;93.43;98607.53;6311899;20;2828382;-43
2022/02/02 00:32:03;;;;;;;;;22.33;17.33;;;;;2.36;94.05;98602.00;6282721;20;3574228;-44
2022/02/02 00:34:32;;;;;;;;;29.50;23.50;;;;;2.36;95.52;98602.00;6310013;20;2829471;-43
2022/02/02 00:37:00;;;;;;;;;32.00;26.50;;;;;2.33;96.11;98596.00;6278559;20;2844024;-43
2022/02/02 00:39:30;;;;;;;;;25.00;17.67;;;;;2.31;95.79;98593.41;6282989;20;3560642;-43
2022/02/02 00:42:00;;;;;;;;;27.00;19.67;;;;;2.29;96.58;98597.94;6282844;20;3584667;-43
2022/02/02 00:44:29;;;;;;;;;31.67;18.67;;;;;2.17;99.43;98591.38;6285151;20;3587783;-44
2022/02/02 00:46:58;;;;;;;;;28.33;18.67;;;;;2.31;100.00;98592.53;6286275;20;3586681;-42
2022/02/02 00:49:26;;;;;;;;;18.00;14.00;;;;;2.11;100.00;98582.88;6318420;20;2795076;-44
2022/02/02 00:51:58;;;;;;;;;21.67;20.33;;;;;2.31;100.00;98581.94;6286181;20;3564859;-43
2022/02/02 00:54:29;;;;;;;;;27.00;22.00;;;;;2.05;100.00;98576.03;6282502;20;3560664;-43
2022/02/02 00:56:58;;;;;;;;;34.67;30.00;;;;;2.19;100.00;98572.78;6284682;20;3575234;-43
2022/02/02 00:59:27;;;;;;;;;28.67;23.33;;;;;2.26;100.00;98558.31;6280459;20;3564854;-45
2022/02/02 01:01:55;;;;;;;;;37.00;25.33;;;;;2.13;100.00;98558.03;6284813;20;3600260;-43
2022/02/02 01:04:25;;;;;;;;;32.33;22.00;;;;;2.01;100.00;98547.16;6284674;20;3581545;-43
2022/02/02 01:10:26;;;;;;;;;36.00;28.00;;;;;2.14;99.60;98540.38;6282057;20;3598168;-42
2022/02/02 01:20:47;;;;;;;;;25.67;22.33;;;;;1.96;99.74;98511.16;6284312;20;3553362;-42
2022/02/02 01:28:43;;;;;;;;;31.00;26.00;;;;;2.27;99.72;98487.69;6284740;20;2837804;-43
2022/02/02 01:31:15;;;;;;;;;32.00;26.33;;;;;2.05;99.10;98479.88;6284770;20;3561790;-43
2022/02/02 01:33:43;;;;;;;;;40.00;27.00;;;;;2.37;100.00;98475.72;6282630;20;2500349;-42
2022/02/02 01:36:12;;;;;;;;;32.67;23.00;;;;;2.21;99.98;98470.28;6282394;20;3579492;-43
2022/02/02 01:38:42;;;;;;;;;32.33;24.00;;;;;2.10;99.79;98467.28;6311945;20;3575320;-43
2022/02/02 01:41:19;;;;;;;;;25.50;25.50;;;;;2.06;100.00;98460.44;6316739;20;2829444;-43
2022/02/02 01:43:58;;;;;;;;;23.00;20.00;;;;;2.03;100.00;98457.91;6286724;20;2840023;-44
2022/02/02 01:46:31;;;;;;;;;18.75;8.25;;;;;2.17;99.18;98436.97;6300903;20;1833611;-43
2022/02/02 01:54:54;;;;;;;;;27.00;23.33;;;;;2.20;98.99;98452.69;6277774;20;3561674;-43
2022/02/02 02:00:08;;;;;;;;;32.50;21.50;;;;;2.13;99.90;98445.97;6315329;20;2856624;-43
2022/02/02 02:02:37;;;;;;;;;31.00;20.33;;;;;2.13;99.94;98441.56;6281667;20;3605618;-42
2022/02/02 02:05:08;;;;;;;;;25.67;22.33;;;;;2.11;100.00;98447.84;6279995;20;3594105;-43
2022/02/02 02:07:37;;;;;;;;;24.67;20.33;;;;;2.08;100.00;98440.03;6279310;20;3581547;-43
2022/02/02 02:10:07;;;;;;;;;32.33;23.00;;;;;2.19;99.77;98437.75;6279709;20;3580568;-43
2022/02/02 02:12:49;;;;;;;;;22.50;18.00;;;;;2.23;100.00;98452.53;6287026;20;2826340;-43
2022/02/02 02:15:18;;;;;;;;;22.00;17.00;;;;;2.22;99.62;98436.75;6277894;20;2500256;-45
2022/02/02 02:17:47;;;;;;;;;25.33;20.33;;;;;2.20;99.86;98431.50;6282183;20;3569058;-44
2022/02/02 02:20:16;;;;;;;;;25.00;20.67;;;;;2.23;99.91;98420.75;6315556;20;3575447;-43
2022/02/02 02:22:45;;;;;;;;;29.00;23.33;;;;;2.35;100.00;98424.63;6313248;20;3595037;-43
2022/02/02 02:25:26;;;;;;;;;75.50;57.00;;;;;2.51;100.00;98414.13;6313536;20;2874208;-43
2022/02/02 02:28:03;;;;;;;;;26.50;21.00;;;;;2.34;100.00;98409.66;6284644;20;2834852;-45
2022/02/02 02:30:55;;;;;;;;;26.00;21.00;;;;;2.16;99.96;98403.47;6282365;20;3571145;-41
2022/02/02 02:58:59;;;;;;;;;36.33;28.33;;;;;2.19;98.38;98382.16;6280806;20;3602340;-44
2022/02/02 04:06:55;;;;;;;;;38.00;23.50;;;;;2.49;96.74;98374.47;6277345;20;2500314;-43
2022/02/02 04:09:24;;;;;;;;;36.00;29.50;;;;;2.68;95.28;98374.38;6281582;20;2856507;-42
2022/02/02 04:56:26;;;;;;;;;34.00;30.00;;;;;2.58;95.27;98350.19;6279437;20;2855474;-43
2022/02/02 05:52:56;;;;;;;;;28.00;23.50;;;;;2.31;97.12;98333.00;6284621;20;2835775;-42
2022/02/02 05:55:24;;;;;;;;;32.00;27.50;;;;;2.44;97.57;98330.59;6278945;20;2500370;-42
2022/02/02 05:57:56;;;;;;;;;34.00;29.00;;;;;2.36;97.11;98330.97;6286183;20;2837760;-42
2022/02/02 06:00:26;;;;;;;;;32.67;25.33;;;;;2.38;97.63;98348.50;6282106;20;3572129;-42
2022/02/02 06:02:58;;;;;;;;;29.00;26.00;;;;;2.67;97.86;98348.00;6283076;20;1976396;-41
2022/02/02 06:05:27;;;;;;;;;32.00;26.00;;;;;2.38;98.00;98351.16;6276418;20;2500258;-42
2022/02/02 06:07:56;;;;;;;;;36.00;31.00;;;;;2.45;97.96;98340.25;6278301;20;2500241;-42
2022/02/02 06:10:25;;;;;;;;;22.50;22.50;;;;;2.45;97.92;98345.53;6286090;20;2829506;-42
2022/02/02 06:12:54;;;;;;;;;35.00;29.50;;;;;2.48;97.91;98345.41;6285534;20;2850328;-42
2022/02/02 06:15:23;;;;;;;;;29.50;26.00;;;;;2.49;97.72;98336.53;6282052;20;2500275;-43
2022/02/02 06:17:52;;;;;;;;;29.00;23.50;;;;;2.67;97.32;98340.88;6281595;20;2830479;-43
2022/02/02 06:20:21;;;;;;;;;29.33;27.33;;;;;2.81;96.81;98353.44;6283425;20;3571049;-42
2022/02/02 06:23:08;;;;;;;;;34.00;30.33;;;;;2.76;97.22;98334.25;6286439;20;3601443;-43
2022/02/02 06:25:46;;;;;;;;;37.00;27.00;;;;;2.70;97.67;98351.31;6278686;20;2500466;-43
2022/02/02 06:28:35;;;;;;;;;18.67;16.33;;;;;2.74;97.79;98337.00;6282088;20;3557532;-42
2022/02/02 06:31:05;;;;;;;;;35.67;26.67;;;;;2.64;97.47;98338.41;6281662;20;3592011;-43
2022/02/02 06:33:58;;;;;;;;;27.00;26.00;;;;;2.92;97.20;98344.91;6282983;20;2500367;-42
2022/02/02 06:36:31;;;;;;;;;37.00;28.00;;;;;3.04;95.87;98338.97;6277205;20;2500261;-42
2022/02/02 06:38:59;;;;;;;;;35.50;30.00;;;;;3.16;96.03;98342.75;6281666;20;2865031;-42
2022/02/02 06:41:29;;;;;;;;;45.00;36.00;;;;;3.47;95.14;98337.53;6282648;20;2868109;-43
2022/02/02 06:43:59;;;;;;;;;44.67;30.00;;;;;3.41;94.48;98321.09;6282397;20;3620454;-43
2022/02/02 06:46:31;;;;;;;;;37.00;30.00;;;;;3.37;94.58;98336.34;6314552;20;2846121;-43
2022/02/02 06:49:02;;;;;;;;;31.00;25.50;;;;;3.46;93.90;98337.63;6278015;20;2498216;-43
2022/02/02 06:51:36;;;;;;;;;26.00;18.00;;;;;3.26;94.87;98344.84;6281962;20;2836740;-43
2022/02/02 06:54:29;;;;;;;;;19.33;15.33;;;;;3.58;94.36;98344.03;6283279;20;3546046;-44
2022/02/02 06:57:12;;;;;;;;;32.00;27.00;;;;;3.83;93.95;98363.00;6313399;20;3576258;-42
2022/02/02 07:13:58;;;;;;;;;32.67;24.33;;;;;3.70;92.05;98365.47;6282179;20;3581090;-44
2022/02/02 07:16:47;;;;;;;;;30.00;22.00;;;;;3.67;92.60;98364.78;6282110;20;2843991;-46
2022/02/02 07:27:34;;;;;;;;;35.50;32.00;;;;;3.57;92.48;98374.19;6280131;20;2500367;-43
2022/02/02 07:30:10;;;;;;;;;38.50;31.00;;;;;3.49;93.72;98386.06;6277101;20;2500405;-44
2022/02/02 07:32:47;;;;;;;;;29.00;19.00;;;;;3.55;92.35;98387.53;6284774;20;2862890;-43
2022/02/02 07:35:27;;;;;;;;;37.50;29.00;;;;;3.49;93.57;98378.09;6277641;20;2500256;-43
2022/02/02 07:38:14;;;;;;;;;39.50;30.50;;;;;3.26;93.74;98381.97;6276689;20;2504453;-44
2022/02/02 07:40:46;;;;;;;;;37.50;28.00;;;;;3.37;93.76;98388.50;6277026;20;2500387;-43
2022/02/02 07:43:31;;;;;;;;;35.00;33.00;;;;;3.91;91.97;98378.50;6281334;20;2500255;-44
2022/02/02 07:46:09;;;;;;;;;46.00;32.50;;;;;3.63;91.81;98390.63;6281054;20;2866977;-43
2022/02/02 07:48:41;;;;;;;;;41.50;34.00;;;;;4.14;91.12;98393.16;6281352;20;2860691;-44
2022/02/02 07:51:10;;;;;;;;;41.00;32.50;;;;;4.07;91.09;98378.50;6282733;20;2848229;-44
2022/02/02 07:53:46;;;;;;;;;33.50;30.50;;;;;4.47;89.71;98386.84;6281099;20;2500278;-44
2022/02/02 07:56:30;;;;;;;;;37.00;27.50;;;;;4.63;89.37;98387.66;6281987;20;2858645;-43
2022/02/02 07:59:49;;;;;;;;;34.50;26.00;;;;;4.65;89.15;98388.44;6280098;20;2852338;-46
2022/02/02 08:01:52;;;;;;;;;33.50;23.50;;;;;4.65;89.88;98379.63;6278767;20;2844058;-45
2022/02/02 08:04:27;;;;;;;;;28.00;24.33;;;;;4.69;89.24;98387.34;6282046;20;3577340;-44
2022/02/02 08:06:56;;;;;;;;;24.50;22.00;;;;;5.09;87.62;98392.09;6271379;20;2496109;-45
2022/02/02 08:09:44;;;;;;;;;28.00;22.50;;;;;5.20;88.31;98394.94;6283554;20;2837761;-44
2022/02/02 08:12:19;;;;;;;;;24.50;23.50;;;;;5.17;88.03;98403.13;6276321;20;2669016;-44
2022/02/02 08:14:55;;;;;;;;;32.00;25.00;;;;;5.47;86.78;98406.56;6280754;20;2854468;-44
2022/02/02 08:17:24;;;;;;;;;24.33;22.67;;;;;5.93;86.50;98414.41;6279788;20;3575250;-46
2022/02/02 08:19:52;;;;;;;;;27.50;23.50;;;;;5.87;85.64;98420.09;6281824;20;2500350;-44
2022/02/02 08:22:20;;;;;;;;;28.50;21.00;;;;;5.67;85.36;98418.66;6280223;20;2500307;-43
2022/02/02 08:24:49;;;;;;;;;20.33;18.00;;;;;5.78;85.57;98420.66;6279599;20;3553437;-44
2022/02/02 08:27:20;;;;;;;;;37.50;27.00;;;;;5.99;84.72;98418.47;6309141;20;2864827;-44
2022/02/02 08:29:49;;;;;;;;;34.00;26.00;;;;;6.04;84.83;98415.53;6284441;20;2851415;-42
2022/02/02 08:32:18;;;;;;;;;29.00;24.00;;;;;6.07;85.20;98410.00;6281151;20;2840891;-42
2022/02/02 08:34:47;;;;;;;;;25.50;23.50;;;;;5.97;84.90;98407.06;6281738;20;2833568;-44
2022/02/02 08:37:17;;;;;;;;;28.00;25.00;;;;;6.05;84.86;98401.25;6281009;20;3585822;-42
2022/02/02 08:40:01;;;;;;;;;20.50;20.50;;;;;6.23;84.53;98389.41;6286276;20;2831523;-42
2022/02/02 08:42:32;;;;;;;;;32.00;21.00;;;;;6.53;85.22;98394.56;6284701;20;2844002;-41
2022/02/02 08:45:17;;;;;;;;;18.00;15.00;;;;;6.42;83.94;98383.72;6284964;20;2823183;-40
2022/02/02 08:47:53;;;;;;;;;13.33;11.33;;;;;6.71;83.18;98388.94;6285220;20;2788791;-40
2022/02/02 08:50:29;;;;;;;;;21.67;18.67;;;;;6.80;82.26;98391.88;6313294;20;3545050;-42
2022/02/02 08:53:08;;;;;;;;;17.33;17.00;;;;;7.01;81.94;98396.72;6315522;20;3552282;-41
2022/02/02 08:58:23;;;;;;;;;20.00;17.00;;;;;7.00;80.74;98411.00;6314863;20;2823228;-41
2022/02/02 09:00:54;;;;;;;;;15.00;15.00;;;;;6.92;80.90;98413.34;6287804;20;2807706;-41
2022/02/02 09:06:10;;;;;;;;;24.00;19.00;;;;;6.95;81.53;98430.00;6286023;20;2500271;-42
2022/02/02 09:08:39;;;;;;;;;36.00;28.00;;;;;7.07;82.93;98441.66;6289048;20;2858713;-42
2022/02/02 09:25:02;;;;;;;;;52.67;40.67;;;;;7.80;78.66;98440.25;6288674;20;3610743;-41
2022/02/02 09:35:57;;;;;;;;;17.00;13.00;;;;;7.93;78.94;98456.28;6288357;20;2794014;-41
2022/02/02 09:38:25;;;;;;;;;24.00;21.00;;;;;8.20;77.87;98450.78;6288809;20;2830455;-41
2022/02/02 09:44:00;;;;;;;;;22.00;15.00;;;;;8.11;77.41;98460.31;6283827;20;2827441;-44
2022/02/02 09:49:16;;;;;;;;;15.00;14.00;;;;;8.04;78.02;98449.19;6291929;20;2808656;-42
2022/02/02 09:51:55;;;;;;;;;19.50;19.00;;;;;7.86;77.69;98455.84;6289269;20;2822150;-42
2022/02/02 10:06:19;;;;;;;;;21.00;15.00;;;;;8.29;76.82;98471.47;6288505;20;3558667;-41
2022/02/02 10:09:11;;;;;;;;;29.00;24.50;;;;;8.21;76.49;98468.50;6319409;20;2846096;-41
2022/02/02 10:14:32;;;;;;;;;20.67;17.00;;;;;8.22;77.35;98465.75;6286789;20;3552315;-41
2022/02/02 10:17:10;;;;;;;;;13.67;12.67;;;;;8.12;76.71;98476.22;6287608;20;3536744;-42
2022/02/02 10:19:38;;;;;;;;;14.00;14.00;;;;;8.16;76.16;98459.97;6321290;20;2798261;-42
2022/02/02 10:22:29;;;;;;;;;13.80;9.80;;;;;8.06;76.80;98465.97;6311811;20;2773157;-41
2022/02/02 10:25:00;;;;;;;;;14.67;13.67;;;;;8.09;76.99;98471.09;6286225;20;3544042;-42
2022/02/02 10:27:36;;;;;;;;;12.50;10.00;;;;;8.40;75.24;98468.94;6316552;20;2784665;-41
2022/02/02 10:30:22;;;;;;;;;12.00;12.00;;;;;8.08;75.36;98458.72;6286953;20;2794060;-41
2022/02/02 10:32:52;;;;;;;;;7.50;6.00;;;;;8.29;75.21;98455.44;6306796;20;1811809;-42
2022/02/02 10:35:45;;;;;;;;;6.00;6.00;;;;;8.47;74.92;98447.94;6319395;20;2742941;-41
2022/02/02 10:38:28;;;;;;;;;6.00;6.00;;;;;8.50;73.06;98459.25;6320552;20;2747143;-42
2022/02/02 10:52:06;;;;;;;;;3.00;3.00;;;;;8.52;72.53;98462.69;6305314;20;1811804;-41
2022/02/02 10:58:04;;;;;;;;;3.00;3.00;;;;;8.73;70.68;98472.78;6322166;20;2740276;-41
2022/02/02 11:00:25;;;;;;;;;7.67;7.17;;;;;8.85;71.21;98474.56;6358282;20;1809024;-41
2022/02/02 11:08:29;;;;;;;;;8.50;8.00;;;;;8.88;70.47;98452.94;6284550;20;2748173;-41
2022/02/02 11:10:59;;;;;;;;;8.20;6.00;;;;;8.96;69.84;98458.56;6309387;20;2739973;-41
2022/02/02 11:13:28;;;;;;;;;3.50;2.00;;;;;8.87;69.71;98461.06;6336582;20;1805570;-42
2022/02/02 11:15:58;;;;;;;;;8.50;7.00;;;;;8.95;70.38;98458.66;6317679;20;2735782;-42
2022/02/02 11:18:40;;;;;;;;;6.50;6.50;;;;;9.17;68.89;98468.63;6315888;20;2752406;-42
2022/02/02 11:21:15;;;;;;;;;7.00;7.00;;;;;8.97;70.05;98464.75;6302569;20;1813664;-41
2022/02/02 11:23:50;;;;;;;;;10.50;8.00;;;;;9.05;69.69;98458.84;6316711;20;2753470;-40
2022/02/02 11:26:44;;;;;;;;;13.50;13.50;;;;;9.14;68.79;98456.34;6287865;20;2795045;-41
2022/02/02 11:29:43;;;;;;;;;10.50;8.50;;;;;9.18;68.12;98465.81;6288287;20;2755599;-41
2022/02/02 11:32:14;;;;;;;;;10.00;9.00;;;;;9.26;67.74;98459.88;6312448;20;2756557;-41
2022/02/02 11:34:42;;;;;;;;;14.50;12.00;;;;;9.19;68.26;98453.31;6284009;20;2789887;-41
2022/02/02 11:37:12;;;;;;;;;10.50;6.75;;;;;8.65;68.83;98457.28;6304537;20;1813240;-40
2022/02/02 11:39:50;;;;;;;;;7.00;4.00;;;;;8.54;67.97;98462.59;6317487;20;2750264;-42
2022/02/02 11:45:56;;;;;;;;;6.00;3.50;;;;;8.56;68.61;98469.53;6285652;20;2741992;-40
2022/02/02 11:49:03;;;;;;;;;3.50;3.50;;;;;8.82;68.17;98474.81;6332478;20;1817017;-41
2022/02/02 11:52:03;;;;;;;;;9.29;7.00;;;;;8.88;67.95;98473.50;6360213;20;1800355;-41
2022/02/02 11:54:40;;;;;;;;;13.50;8.00;;;;;8.69;67.64;98465.94;6319198;20;2758612;-41
2022/02/02 11:57:57;;;;;;;;;7.50;2.00;;;;;8.66;67.33;98461.69;6288306;20;2748152;-41
2022/02/02 12:00:53;;;;;;;;;4.50;3.25;;;;;8.69;67.20;98464.16;6332952;20;1820227;-41
2022/02/02 12:08:49;;;;;;;;;5.50;5.50;;;;;8.62;65.90;98457.53;6339641;20;2701308;-43
2022/02/02 12:11:40;;;;;;;;;8.00;8.00;;;;;8.99;66.52;98461.00;6318561;20;2740868;-41
2022/02/02 12:57:10;;;;;;;;;6.50;3.00;;;;;9.31;63.10;98444.31;6344471;20;2743986;-42
2022/02/02 13:02:16;;;;;;;;;8.00;3.00;;;;;9.31;63.99;98456.88;6313899;20;2740879;-44
2022/02/02 13:04:55;;;;;;;;;3.00;3.00;;;;;9.56;62.20;98455.84;6315201;20;2751395;-42
2022/02/02 13:07:31;;;;;;;;;4.00;4.00;;;;;9.72;62.18;98463.56;6315687;20;2745271;-42
2022/02/02 13:10:05;;;;;;;;;3.00;3.00;;;;;9.76;61.39;98460.50;6314263;20;2747144;-43
2022/02/02 13:12:53;;;;;;;;;2.00;2.00;;;;;9.84;60.97;98458.06;6329885;20;1810303;-43
2022/02/02 13:26:57;;;;;;;;;3.00;3.00;;;;;9.61;59.38;98477.75;6313135;20;2753553;-42
2022/02/02 13:35:18;;;;;;;;;3.25;2.25;;;;;9.74;60.21;98500.00;6361220;20;1803431;-43
2022/02/02 13:43:40;;;;;;;;;6.75;4.00;;;;;9.14;66.04;98522.44;6362305;20;1813956;-44
2022/02/02 13:46:48;;;;;;;;;10.40;8.40;;;;;8.89;66.04;98526.91;6368218;20;2767026;-44
2022/02/02 13:49:44;;;;;;;;;7.00;7.00;;;;;8.77;68.25;98527.81;6291216;20;2729804;-43
2022/02/02 13:53:01;;;;;;;;;6.00;4.00;;;;;8.50;68.56;98530.63;6322030;20;2751390;-43
2022/02/02 13:55:47;;;;;;;;;4.00;4.00;;;;;8.41;70.01;98529.47;6287773;20;2752349;-43
2022/02/02 13:59:04;;;;;;;;;5.00;2.25;;;;;8.47;69.81;98537.06;6307189;20;1821214;-43
2022/02/02 14:01:25;;;;;;;;;9.50;4.00;;;;;8.48;69.18;98546.81;6319359;20;2760805;-42
2022/02/02 14:25:37;;;;;;;;;13.50;9.00;;;;;8.50;69.96;98566.25;6285810;20;2763810;-43
2022/02/02 14:25:52;;;;;;;;;18.67;13.00;;;;;8.33;68.78;98582.63;6318157;20;3528490;-45
2022/02/02 14:33:59;;;;;;;;;3.00;2.75;;;;;8.14;69.11;98613.31;6305007;20;1819106;-42
2022/02/02 14:36:35;;;;;;;;;7.00;4.00;;;;;7.80;70.09;98611.25;6333130;20;1811941;-43
2022/02/02 14:39:16;;;;;;;;;11.00;9.50;;;;;7.58;69.98;98620.72;6318061;20;2774283;-43
2022/02/02 14:44:20;;;;;;;;;16.50;13.00;;;;;7.26;71.21;98641.50;6316312;20;2794042;-43
2022/02/02 14:47:13;;;;;;;;;11.00;10.00;;;;;7.34;73.37;98649.84;6287546;20;2768182;-44
2022/02/02 14:49:54;;;;;;;;;4.00;2.00;;;;;7.00;74.45;98651.16;6305923;20;1820155;-43
2022/02/02 14:55:48;;;;;;;;;1.00;1.00;;;;;6.72;76.50;98658.25;6288488;20;3443065;-43
2022/02/02 15:28:20;;;;;;;;;12.60;10.40;;;;;6.81;73.53;98652.34;6312009;20;2773170;-42
2022/02/02 15:33:26;;;;;;;;;24.67;19.67;;;;;7.06;74.68;98650.81;6284964;20;3559658;-43
2022/02/02 15:38:52;;;;;;;;;47.33;36.67;;;;;6.88;74.93;98646.63;6280510;20;2876369;-44
2022/02/02 15:41:27;;;;;;;;;12.40;12.00;;;;;6.68;74.02;98647.88;6342927;20;2786684;-42
2022/02/02 16:03:13;;;;;;;;;45.00;38.00;;;;;6.58;73.29;98666.25;6316196;20;2861135;-42
2022/02/02 16:05:47;;;;;;;;;63.00;49.00;;;;;6.50;72.91;98673.84;6317036;20;2862730;-43
2022/02/02 16:08:21;;;;;;;;;23.50;22.50;;;;;6.50;73.58;98688.06;6284193;20;2827332;-42
2022/02/02 16:11:03;;;;;;;;;13.20;10.40;;;;;6.53;73.32;98689.66;6306301;20;2787781;-42
2022/02/02 16:13:36;;;;;;;;;10.50;6.00;;;;;6.63;73.10;98682.81;6282435;20;2772116;-43
2022/02/02 16:18:49;;;;;;;;;21.67;17.33;;;;;6.44;74.09;98701.75;6283726;20;3579408;-45
2022/02/02 16:33:14;;;;;;;;;60.00;43.00;;;;;6.27;74.13;98705.44;6284779;20;2881615;-45
2022/02/02 16:38:27;;;;;;;;;13.00;9.00;;;;;6.40;73.41;98710.03;6278981;20;2758630;-42
2022/02/02 16:40:57;;;;;;;;;17.33;16.00;;;;;6.55;72.35;98703.78;6283618;20;2824428;-42
2022/02/02 16:43:26;;;;;;;;;9.50;6.00;;;;;6.51;73.10;98715.59;6331006;20;1827585;-43
2022/02/02 16:45:54;;;;;;;;;9.50;5.00;;;;;6.43;73.40;98715.19;6315034;20;2760699;-43
2022/02/02 16:48:24;;;;;;;;;12.00;8.00;;;;;6.11;73.06;98709.97;6283950;20;2769011;-43
2022/02/02 16:50:56;;;;;;;;;11.60;7.00;;;;;6.28;73.00;98712.50;6311100;20;2765308;-42
2022/02/02 16:53:36;;;;;;;;;4.00;1.00;;;;;6.03;73.18;98722.88;6303152;20;1809625;-43
2022/02/02 16:56:24;;;;;;;;;7.50;6.00;;;;;6.22;73.67;98726.19;6333809;20;1823273;-42
2022/02/02 17:37:05;;;;;;;;;16.33;15.67;;;;;6.13;73.45;98820.00;6287440;20;2796203;-42
2022/02/02 17:39:49;;;;;;;;;13.50;11.00;;;;;6.16;72.90;98822.47;6316100;20;2781520;-42
2022/02/02 17:45:43;;;;;;;;;8.00;6.50;;;;;6.02;72.89;98823.28;6305561;20;1819965;-43
2022/02/02 18:20:45;;;;;;;;;10.50;7.00;;;;;6.17;72.20;98858.00;6306737;20;1819143;-43
2022/02/02 18:23:29;;;;;;;;;8.00;7.00;;;;;5.91;71.67;98858.47;6318680;20;2753790;-42
2022/02/02 18:34:29;;;;;;;;;0.33;0.00;;;;;5.90;71.03;98866.56;6319302;20;3436717;-43
2022/02/02 18:47:53;;;;;;;;;5.00;5.00;;;;;6.18;70.54;98876.56;6287188;20;2748613;-43
2022/02/02 18:50:34;;;;;;;;;11.00;7.00;;;;;6.29;71.91;98868.84;6320271;20;2763863;-44
2022/02/02 18:55:53;;;;;;;;;9.00;5.25;;;;;6.06;70.56;98871.94;6305240;20;1825481;-43
2022/02/02 19:56:26;;;;;;;;;3.50;3.00;;;;;6.26;68.22;99002.25;6304847;20;1812897;-44
2022/02/02 20:01:53;;;;;;;;;5.00;5.00;;;;;6.24;67.92;98996.19;6337541;20;1825450;-43
2022/02/02 20:07:26;;;;;;;;;4.50;3.00;;;;;6.17;67.84;99008.13;6336803;20;1814865;-42
2022/02/02 20:12:29;;;;;;;;;6.00;6.00;;;;;6.16;67.81;99011.69;6320807;20;2742947;-42
2022/02/02 20:15:00;;;;;;;;;7.00;5.00;;;;;6.13;67.54;99011.88;6334098;20;1814892;-42
2022/02/02 20:17:31;;;;;;;;;8.75;6.25;;;;;6.25;67.12;99021.88;6337207;20;1815953;-42
2022/02/02 20:20:12;;;;;;;;;6.25;6.00;;;;;6.03;67.47;99026.63;6335445;20;1820125;-43
2022/02/02 20:22:40;;;;;;;;;9.00;4.00;;;;;6.08;67.53;99040.56;6317861;20;2756552;-43
2022/02/02 20:25:11;;;;;;;;;8.00;5.00;;;;;6.19;68.47;99037.31;6287466;20;2754399;-42
2022/02/02 20:27:41;;;;;;;;;6.50;6.00;;;;;6.39;67.50;99042.44;6336273;20;1815741;-42
2022/02/02 20:30:12;;;;;;;;;4.50;4.50;;;;;6.21;68.33;99038.97;6334372;20;1812788;-43
2022/02/02 20:32:40;;;;;;;;;3.75;3.75;;;;;6.22;68.78;99042.53;6335722;20;1824328;-43
2022/02/02 20:35:09;;;;;;;;;8.00;5.00;;;;;6.05;68.93;99040.75;6333154;20;1808700;-42
2022/02/02 20:37:37;;;;;;;;;10.50;7.00;;;;;6.15;67.42;99055.31;6318962;20;2755553;-43
2022/02/02 20:40:08;;;;;;;;;7.50;5.00;;;;;6.04;68.03;99044.38;6332221;20;1825235;-43
2022/02/02 21:03:08;;;;;;;;;3.75;3.00;;;;;5.92;68.60;99094.69;6338836;20;1848456;-43
2022/02/02 21:15:13;;;;;;;;;4.25;3.75;;;;;6.00;68.47;99128.06;6334053;20;1814932;-43
2022/02/02 21:17:42;;;;;;;;;6.75;5.00;;;;;5.81;68.85;99138.78;6334715;20;1812982;-45
2022/02/02 21:22:49;;;;;;;;;12.00;6.00;;;;;5.87;69.54;99151.78;6319723;20;2770101;-44
2022/02/02 21:25:33;;;;;;;;;10.00;3.00;;;;;5.55;69.87;99151.59;6307076;20;1820105;-43
2022/02/02 21:28:04;;;;;;;;;11.00;6.50;;;;;5.72;69.75;99166.75;6319860;20;2772138;-44
2022/02/02 21:30:34;;;;;;;;;5.50;5.50;;;;;5.65;69.83;99170.66;6290701;20;2751397;-44
2022/02/02 21:33:03;;;;;;;;;5.00;3.75;;;;;5.71;70.39;99180.97;6305491;20;1812981;-44
2022/02/02 21:35:35;;;;;;;;;4.75;4.75;;;;;5.82;69.42;99178.66;6339938;20;1812794;-43
2022/02/02 21:38:09;;;;;;;;;7.00;3.00;;;;;5.84;69.80;99171.44;6339362;20;1823170;-43
2022/02/02 21:40:37;;;;;;;;;9.00;5.00;;;;;5.91;69.56;99193.31;6337394;20;1825398;-43
2022/02/02 21:43:05;;;;;;;;;5.67;5.00;;;;;5.78;69.58;99198.41;6286491;20;3461796;-43
2022/02/02 21:45:34;;;;;;;;;4.50;4.50;;;;;5.77;70.26;99202.00;6306017;20;1809653;-43
2022/02/02 21:48:02;;;;;;;;;5.50;4.25;;;;;5.65;70.55;99207.94;6338172;20;1819184;-43
2022/02/02 21:50:44;;;;;;;;;7.25;5.50;;;;;5.72;70.62;99214.69;6337365;20;1819118;-43
2022/02/02 21:53:12;;;;;;;;;7.00;5.00;;;;;5.55;71.39;99211.97;6321410;20;2756535;-43
2022/02/02 21:55:40;;;;;;;;;11.00;6.00;;;;;5.68;71.24;99208.63;6320912;20;2763787;-43
2022/02/02 21:58:08;;;;;;;;;7.75;7.75;;;;;5.48;71.41;99222.09;6338118;20;1822716;-44
2022/02/02 22:00:36;;;;;;;;;3.67;3.67;;;;;5.35;71.83;99219.13;6319468;20;3471187;-44
2022/02/02 22:03:08;;;;;;;;;7.00;5.50;;;;;5.49;71.71;99221.13;6363575;20;2581512;-43
2022/02/02 22:05:38;;;;;;;;;3.50;2.00;;;;;5.47;71.72;99231.84;6306017;20;1822148;-43
2022/02/02 22:08:09;;;;;;;;;5.00;4.00;;;;;5.32;71.97;99229.03;6321054;20;3452431;-43
2022/02/02 22:10:39;;;;;;;;;7.25;4.00;;;;;5.50;72.08;99236.16;6337036;20;1819229;-43
2022/02/02 22:13:09;;;;;;;;;6.00;5.00;;;;;5.31;72.10;99243.31;6338047;20;1817076;-43
2022/02/02 22:15:41;;;;;;;;;1.00;1.00;;;;;5.31;72.43;99244.16;6338795;20;1811742;-43
2022/02/02 22:18:10;;;;;;;;;4.00;4.00;;;;;5.26;72.26;99251.50;6336186;20;1824226;-43
2022/02/02 22:20:39;;;;;;;;;8.00;5.00;;;;;5.32;72.13;99259.22;6336731;20;1813819;-43
2022/02/02 22:23:08;;;;;;;;;4.25;3.75;;;;;5.28;72.15;99261.13;6337106;20;1814863;-43
2022/02/02 22:25:37;;;;;;;;;4.50;2.75;;;;;5.39;72.33;99268.63;6337706;20;1811753;-43
2022/02/02 22:28:05;;;;;;;;;6.75;5.00;;;;;5.51;71.68;99275.19;6336743;20;1824849;-42
2022/02/02 22:30:34;;;;;;;;;4.00;3.00;;;;;5.42;72.27;99281.78;6338564;20;1809667;-43
2022/02/02 22:33:03;;;;;;;;;6.00;4.00;;;;;5.30;72.29;99284.19;6337663;20;1814977;-42
2022/02/02 22:35:32;;;;;;;;;3.00;3.00;;;;;5.11;73.57;99292.13;6337066;20;1819158;-41
2022/02/02 22:38:00;;;;;;;;;6.00;5.00;;;;;5.14;72.75;99292.00;6338306;20;1824939;-41
2022/02/02 22:40:29;;;;;;;;;8.75;5.00;;;;;5.28;72.67;99301.06;6335623;20;1823228;-43
2022/02/02 22:42:57;;;;;;;;;5.25;2.25;;;;;5.34;72.53;99299.91;6336882;20;1819167;-44
2022/02/02 22:45:27;;;;;;;;;5.25;4.00;;;;;5.14;72.96;99310.63;6334380;20;1820114;-42
2022/02/02 22:47:57;;;;;;;;;5.67;4.00;;;;;5.31;72.55;99310.72;6317758;20;3450321;-43
2022/02/02 22:50:26;;;;;;;;;4.75;2.50;;;;;5.42;72.17;99329.69;6336570;20;1813542;-43
2022/02/02 22:52:57;;;;;;;;;6.00;4.00;;;;;5.25;72.13;99324.31;6320316;20;2741422;-44
2022/02/02 22:55:25;;;;;;;;;2.67;2.67;;;;;5.44;72.54;99332.31;6318789;20;3461692;-43
2022/02/02 22:57:54;;;;;;;;;6.25;3.00;;;;;5.45;72.34;99340.22;6303743;20;1821169;-43
2022/02/02 23:00:35;;;;;;;;;3.00;3.00;;;;;5.57;71.80;99335.25;6319029;20;2744011;-42
2022/02/02 23:03:11;;;;;;;;;6.75;4.00;;;;;5.41;71.74;99349.28;6337735;20;1816996;-42
2022/02/02 23:05:45;;;;;;;;;4.50;4.00;;;;;5.31;72.20;99358.63;6320562;20;2739934;-43
2022/02/02 23:08:16;;;;;;;;;6.00;4.50;;;;;5.31;72.38;99363.09;6321309;20;2754404;-43
2022/02/02 23:10:46;;;;;;;;;5.75;5.75;;;;;5.34;72.54;99371.78;6334213;20;1815955;-43
2022/02/02 23:13:16;;;;;;;;;10.00;4.50;;;;;5.22;72.68;99359.91;6336962;20;1825389;-43
2022/02/02 23:20:48;;;;;;;;;3.50;3.50;;;;;5.34;72.24;99379.78;6304128;20;1806599;-43
2022/02/02 23:23:25;;;;;;;;;5.00;4.00;;;;;5.27;72.89;99383.66;6319548;20;3446108;-43
2022/02/02 23:25:56;;;;;;;;;6.00;3.50;;;;;5.19;73.08;99385.81;6337671;20;1822013;-42